createdAt,value
2024-05-09T00:00:38.587Z,64.22
2024-05-09T00:01:15.052Z,62.17
2024-05-09T00:01:47.229Z,64.65
2024-05-09T00:02:19.288Z,65.30
2024-05-09T00:02:53.947Z,64.25
2024-05-09T00:03:26.412Z,64.38
2024-05-09T00:03:58.611Z,68.75
2024-05-09T00:04:33.246Z,67.50
2024-05-09T00:05:05.698Z,65.43
2024-05-09T00:05:37.997Z,63.10
2024-05-09T00:06:10.348Z,67.13
2024-05-09T00:06:44.955Z,64.30
2024-05-09T00:07:16.955Z,66.97
2024-05-09T00:07:49.005Z,63.60
2024-05-09T00:08:21.171Z,67.65
2024-05-09T00:08:55.854Z,69.22
2024-05-09T00:09:27.887Z,69.07
2024-05-09T00:10:00.036Z,69.05
2024-05-09T00:10:36.724Z,71.53
2024-05-09T00:11:16.334Z,71.88
2024-05-09T00:11:48.448Z,68.32
2024-05-09T00:12:20.732Z,71.50
2024-05-09T00:12:53.019Z,74.55
2024-05-09T00:13:27.698Z,71.03
2024-05-09T00:13:59.719Z,75.28
2024-05-09T00:14:31.948Z,71.50
2024-05-09T00:15:07.784Z,74.68
2024-05-09T00:15:39.827Z,76.28
2024-05-09T00:16:11.837Z,74.50
2024-05-09T00:16:44.096Z,75.35
2024-05-09T00:17:18.788Z,74.88
2024-05-09T00:17:51.062Z,76.20
2024-05-09T00:18:23.598Z,70.63
2024-05-09T00:18:58.497Z,73.70
2024-05-09T00:19:30.627Z,70.22
2024-05-09T00:20:05.193Z,75.75
2024-05-09T00:20:43.647Z,71.90
2024-05-09T00:21:15.807Z,71.57
2024-05-09T00:21:47.876Z,69.25
2024-05-09T00:22:20.178Z,69.65
2024-05-09T00:22:54.851Z,69.45
2024-05-09T00:23:27.034Z,68.75
2024-05-09T00:23:59.067Z,69.18
2024-05-09T00:24:33.681Z,71.05
2024-05-09T00:25:06.088Z,67.78
2024-05-09T00:25:38.785Z,68.35
2024-05-09T00:26:10.941Z,66.03
2024-05-09T00:26:45.623Z,68.47
2024-05-09T00:27:17.657Z,70.38
2024-05-09T00:27:49.654Z,68.70
2024-05-09T00:28:22.127Z,68.25
2024-05-09T00:28:56.736Z,68.93
2024-05-09T00:29:28.862Z,70.32
2024-05-09T00:30:00.960Z,70.22
2024-05-09T00:30:35.862Z,70.22
2024-05-09T00:31:11.741Z,69.00
2024-05-09T00:31:43.823Z,68.50
2024-05-09T00:32:15.881Z,71.35
2024-05-09T00:32:48.251Z,73.15
2024-05-09T00:33:23.245Z,72.80
2024-05-09T00:33:55.811Z,74.75
2024-05-09T00:34:28.083Z,73.63
2024-05-09T00:35:00.298Z,72.43
2024-05-09T00:35:35.145Z,71.75
2024-05-09T00:36:07.699Z,72.13
2024-05-09T00:36:39.729Z,72.22
2024-05-09T00:37:14.420Z,74.28
2024-05-09T00:37:46.481Z,76.60
2024-05-09T00:38:18.639Z,72.75
2024-05-09T00:38:50.675Z,73.43
2024-05-09T00:39:25.280Z,74.85
2024-05-09T00:39:57.337Z,76.22
2024-05-09T00:40:39.593Z,72.60
2024-05-09T00:41:19.649Z,86.40
2024-05-09T00:41:52.130Z,77.93
2024-05-09T00:42:24.259Z,78.13
2024-05-09T00:42:56.322Z,78.90
2024-05-09T00:43:32.595Z,77.43
2024-05-09T00:44:04.861Z,78.28
2024-05-09T00:44:37.107Z,79.22
2024-05-09T00:45:11.808Z,77.18
2024-05-09T00:45:44.387Z,76.13
2024-05-09T00:46:16.783Z,73.00
2024-05-09T00:46:53.336Z,72.18
2024-05-09T00:47:28.110Z,73.63
2024-05-09T00:48:06.474Z,74.32
2024-05-09T00:48:39.787Z,75.07
2024-05-09T00:49:15.494Z,77.03
2024-05-09T00:49:48.503Z,79.80
2024-05-09T00:50:29.416Z,77.90
2024-05-09T00:51:06.695Z,82.70
2024-05-09T00:51:43.973Z,81.93
2024-05-09T00:52:16.193Z,82.55
2024-05-09T00:52:48.759Z,83.43
2024-05-09T00:53:21.061Z,81.03
2024-05-09T00:53:56.150Z,89.15
2024-05-09T00:54:29.283Z,81.88
2024-05-09T00:55:01.495Z,85.00
2024-05-09T00:55:35.638Z,82.25
2024-05-09T00:56:11.672Z,87.57
2024-05-09T00:56:43.819Z,86.97
2024-05-09T00:57:17.221Z,85.78
2024-05-09T00:57:51.845Z,85.20
2024-05-09T00:58:26.379Z,87.50
2024-05-09T00:58:58.549Z,83.85
2024-05-09T00:59:36.096Z,84.55
2024-05-09T01:00:22.379Z,86.15
2024-05-09T01:01:03.416Z,89.22
2024-05-09T01:01:38.380Z,87.32
2024-05-09T01:02:11.041Z,93.43
2024-05-09T01:02:43.256Z,91.38
2024-05-09T01:03:15.693Z,88.10
2024-05-09T01:03:53.237Z,89.25
2024-05-09T01:04:25.437Z,86.82
2024-05-09T01:04:57.801Z,90.82
2024-05-09T01:05:30.148Z,89.38
2024-05-09T01:06:02.270Z,89.32
2024-05-09T01:06:36.984Z,88.25
2024-05-09T01:07:11.119Z,90.22
2024-05-09T01:07:43.682Z,82.28
2024-05-09T01:08:15.813Z,83.00
2024-05-09T01:08:50.670Z,84.82
2024-05-09T01:09:22.756Z,84.32
2024-05-09T01:09:54.813Z,83.40
2024-05-09T01:10:33.677Z,84.22
2024-05-09T01:11:10.400Z,84.72
2024-05-09T01:11:42.658Z,78.40
2024-05-09T01:12:15.059Z,79.70
2024-05-09T01:12:47.181Z,81.93
2024-05-09T01:13:22.198Z,80.15
2024-05-09T01:13:54.407Z,78.00
2024-05-09T01:14:26.515Z,78.03
2024-05-09T01:14:58.622Z,78.90
2024-05-09T01:15:33.457Z,82.85
2024-05-09T01:16:05.977Z,75.50
2024-05-09T01:16:38.619Z,77.60
2024-05-09T01:17:13.628Z,77.10
2024-05-09T01:17:46.781Z,80.85
2024-05-09T01:18:19.124Z,82.70
2024-05-09T01:18:51.312Z,76.63
2024-05-09T01:19:32.095Z,77.65
2024-05-09T01:20:06.211Z,80.18
2024-05-09T01:20:43.195Z,81.15
2024-05-09T01:21:17.207Z,80.28
2024-05-09T01:21:51.997Z,76.90
2024-05-09T01:22:25.967Z,83.68
2024-05-09T01:22:59.530Z,77.60
2024-05-09T01:23:34.320Z,85.55
2024-05-09T01:24:06.515Z,81.25
2024-05-09T01:24:38.545Z,85.63
2024-05-09T01:25:10.601Z,83.55
2024-05-09T01:25:46.557Z,86.88
2024-05-09T01:26:19.108Z,80.28
2024-05-09T01:26:51.217Z,80.20
2024-05-09T01:27:25.839Z,83.65
2024-05-09T01:27:57.850Z,82.20
2024-05-09T01:28:29.896Z,84.70
2024-05-09T01:29:01.965Z,85.80
2024-05-09T01:29:36.632Z,83.10
2024-05-09T01:30:09.627Z,82.15
2024-05-09T01:30:46.743Z,80.63
2024-05-09T01:31:21.335Z,79.05
2024-05-09T01:31:53.457Z,83.03
2024-05-09T01:32:25.722Z,86.13
2024-05-09T01:33:00.625Z,83.60
2024-05-09T01:33:33.406Z,81.80
2024-05-09T01:34:05.822Z,83.28
2024-05-09T01:34:40.500Z,84.30
2024-05-09T01:35:12.601Z,85.72
2024-05-09T01:35:45.113Z,83.10
2024-05-09T01:36:17.322Z,85.65
2024-05-09T01:36:52.050Z,83.32
2024-05-09T01:37:24.047Z,86.60
2024-05-09T01:37:56.152Z,85.65
2024-05-09T01:38:28.404Z,87.00
2024-05-09T01:39:03.207Z,88.28
2024-05-09T01:39:35.299Z,93.35
2024-05-09T01:40:15.004Z,89.32
2024-05-09T01:40:53.183Z,90.30
2024-05-09T01:41:25.317Z,93.18
2024-05-09T01:41:57.388Z,89.93
2024-05-09T01:42:29.380Z,88.28
2024-05-09T01:43:04.041Z,88.20
2024-05-09T01:43:36.144Z,90.55
2024-05-09T01:44:08.267Z,95.78
2024-05-09T01:44:40.388Z,90.30
2024-05-09T01:45:15.245Z,88.55
2024-05-09T01:45:47.296Z,92.13
2024-05-09T01:46:19.496Z,88.78
2024-05-09T01:46:51.550Z,91.70
2024-05-09T01:47:26.366Z,90.10
2024-05-09T01:47:58.919Z,92.47
2024-05-09T01:48:31.290Z,91.35
2024-05-09T01:49:04.581Z,84.85
2024-05-09T01:49:40.374Z,87.97
2024-05-09T01:50:16.348Z,86.82
2024-05-09T01:50:48.620Z,83.07
2024-05-09T01:51:20.746Z,86.55
2024-05-09T01:51:55.404Z,85.32
2024-05-09T01:52:27.582Z,90.25
2024-05-09T01:52:59.707Z,86.75
2024-05-09T01:53:34.399Z,89.22
2024-05-09T01:54:06.516Z,88.00
2024-05-09T01:54:38.606Z,89.75
2024-05-09T01:55:10.667Z,88.50
2024-05-09T01:55:45.771Z,93.25
2024-05-09T01:56:49.794Z,88.70
2024-05-09T01:57:22.033Z,88.95
2024-05-09T01:57:57.597Z,88.13
2024-05-09T01:58:30.805Z,86.43
2024-05-09T01:59:02.916Z,87.47
2024-05-09T01:59:36.302Z,86.53
2024-05-09T02:00:15.592Z,87.00
2024-05-09T02:00:47.767Z,89.97
2024-05-09T02:01:19.837Z,87.63
2024-05-09T02:01:56.849Z,86.75
2024-05-09T02:02:32.515Z,87.35
2024-05-09T02:03:05.202Z,86.18
2024-05-09T02:03:37.482Z,80.18
2024-05-09T02:04:09.956Z,79.38
2024-05-09T02:04:45.258Z,79.45
2024-05-09T02:05:50.141Z,84.05
2024-05-09T02:06:22.426Z,82.43
2024-05-09T02:06:57.083Z,82.38
2024-05-09T02:07:29.131Z,90.05
2024-05-09T02:08:01.302Z,83.75
2024-05-09T02:08:33.601Z,83.40
2024-05-09T02:09:08.272Z,83.65
2024-05-09T02:09:40.339Z,86.10
2024-05-09T02:10:20.132Z,86.88
2024-05-09T02:10:57.943Z,82.82
2024-05-09T02:11:30.200Z,80.18
2024-05-09T02:12:02.388Z,85.22
2024-05-09T02:12:34.686Z,85.13
2024-05-09T02:13:10.263Z,85.78
2024-05-09T02:13:42.273Z,76.15
2024-05-09T02:14:14.377Z,81.63
2024-05-09T02:14:46.545Z,80.35
2024-05-09T02:15:21.129Z,81.35
2024-05-09T02:15:53.300Z,77.28
2024-05-09T02:16:25.322Z,76.22
2024-05-09T02:17:00.018Z,79.57
2024-05-09T02:17:32.196Z,78.07
2024-05-09T02:18:04.954Z,75.97
2024-05-09T02:18:37.128Z,75.60
2024-05-09T02:19:12.016Z,75.63
2024-05-09T02:19:44.177Z,71.95
2024-05-09T02:20:22.734Z,73.43
2024-05-09T02:21:04.518Z,75.28
2024-05-09T02:21:36.891Z,72.35
2024-05-09T02:22:08.916Z,76.28
2024-05-09T02:22:40.938Z,76.28
2024-05-09T02:23:15.749Z,74.53
2024-05-09T02:23:47.802Z,75.60
2024-05-09T02:24:19.806Z,72.70
2024-05-09T02:24:51.991Z,73.60
2024-05-09T02:25:27.444Z,74.10
2024-05-09T02:25:59.501Z,71.82
2024-05-09T02:26:31.694Z,72.80
2024-05-09T02:27:06.621Z,79.35
2024-05-09T02:27:38.682Z,73.38
2024-05-09T02:28:10.661Z,75.07
2024-05-09T02:28:42.708Z,77.68
2024-05-09T02:29:17.374Z,79.82
2024-05-09T02:29:49.434Z,79.28
2024-05-09T02:30:29.997Z,76.82
2024-05-09T02:31:13.229Z,76.88
2024-05-09T02:31:48.244Z,73.53
2024-05-09T02:32:20.727Z,75.32
2024-05-09T02:32:53.014Z,73.43
2024-05-09T02:33:25.353Z,75.60
2024-05-09T02:33:57.681Z,76.00
2024-05-09T02:34:32.632Z,75.68
2024-05-09T02:35:05.015Z,78.70
2024-05-09T02:35:37.122Z,75.15
2024-05-09T02:36:10.283Z,80.07
2024-05-09T02:36:42.315Z,73.82
2024-05-09T02:37:17.034Z,80.72
2024-05-09T02:37:49.095Z,76.93
2024-05-09T02:38:21.302Z,85.40
2024-05-09T02:38:53.333Z,82.13
2024-05-09T02:39:25.422Z,80.20
2024-05-09T02:39:57.410Z,78.32
2024-05-09T02:40:36.531Z,84.28
2024-05-09T02:41:13.632Z,77.28
2024-05-09T02:41:45.715Z,78.30
2024-05-09T02:42:17.762Z,78.68
2024-05-09T02:42:49.822Z,78.65
2024-05-09T02:43:21.890Z,80.97
2024-05-09T02:43:53.991Z,81.70
2024-05-09T02:44:26.157Z,84.47
2024-05-09T02:44:58.254Z,90.10
2024-05-09T02:45:33.117Z,85.78
2024-05-09T02:46:06.932Z,84.70
2024-05-09T02:46:39.005Z,88.78
2024-05-09T02:47:11.147Z,85.97
2024-05-09T02:47:43.390Z,86.10
2024-05-09T02:48:18.339Z,86.95
2024-05-09T02:48:50.574Z,88.63
2024-05-09T02:49:22.860Z,89.53
2024-05-09T02:49:55.108Z,90.57
2024-05-09T02:50:34.455Z,89.45
2024-05-09T02:51:11.003Z,89.05
2024-05-09T02:51:43.089Z,90.20
2024-05-09T02:52:21.225Z,88.40
2024-05-09T02:52:53.336Z,88.88
2024-05-09T02:53:25.466Z,94.20
2024-05-09T02:53:57.604Z,93.63
2024-05-09T02:54:29.659Z,90.47
2024-05-09T02:55:01.665Z,90.45
2024-05-09T02:55:34.653Z,96.00
2024-05-09T02:56:09.657Z,90.75
2024-05-09T02:56:41.767Z,86.13
2024-05-09T02:57:13.858Z,90.30
2024-05-09T02:57:45.931Z,86.22
2024-05-09T02:58:18.013Z,93.72
2024-05-09T02:58:50.105Z,95.30
2024-05-09T02:59:24.881Z,91.47
2024-05-09T02:59:56.966Z,96.85
2024-05-09T03:00:37.666Z,90.25
2024-05-09T03:01:12.792Z,90.80
2024-05-09T03:01:45.035Z,89.10
2024-05-09T03:02:17.186Z,93.20
2024-05-09T03:02:51.969Z,93.13
2024-05-09T03:03:24.596Z,92.00
2024-05-09T03:03:56.971Z,86.90
2024-05-09T03:04:29.134Z,85.88
2024-05-09T03:05:01.445Z,91.50
2024-05-09T03:05:33.714Z,89.88
2024-05-09T03:06:05.883Z,87.82
2024-05-09T03:06:46.149Z,85.50
2024-05-09T03:07:20.222Z,89.38
2024-05-09T03:07:52.439Z,89.72
2024-05-09T03:08:24.956Z,84.60
2024-05-09T03:08:56.981Z,85.40
2024-05-09T03:09:29.161Z,86.60
2024-05-09T03:10:01.202Z,85.85
2024-05-09T03:10:36.560Z,87.22
2024-05-09T03:11:13.220Z,86.95
2024-05-09T03:11:46.035Z,86.38
2024-05-09T03:12:18.228Z,87.00
2024-05-09T03:12:50.264Z,87.88
2024-05-09T03:13:22.412Z,87.30
2024-05-09T03:13:55.280Z,92.25
2024-05-09T03:14:31.403Z,87.47
2024-05-09T03:15:03.737Z,84.28
2024-05-09T03:15:35.834Z,83.20
2024-05-09T03:16:08.050Z,89.30
2024-05-09T03:16:40.090Z,85.35
2024-05-09T03:17:12.258Z,84.40
2024-05-09T03:17:44.810Z,85.95
2024-05-09T03:18:20.033Z,83.40
2024-05-09T03:18:52.139Z,85.20
2024-05-09T03:19:24.259Z,84.05
2024-05-09T03:19:56.342Z,84.15
2024-05-09T03:20:33.843Z,84.65
2024-05-09T03:21:08.044Z,82.53
2024-05-09T03:21:40.574Z,87.50
2024-05-09T03:22:15.154Z,91.80
2024-05-09T03:22:47.182Z,89.85
2024-05-09T03:23:19.296Z,90.70
2024-05-09T03:23:51.416Z,97.43
2024-05-09T03:24:23.446Z,95.65
2024-05-09T03:24:55.521Z,92.32
2024-05-09T03:25:27.542Z,97.00
2024-05-09T03:26:02.256Z,100.80
2024-05-09T03:26:34.601Z,103.10
2024-05-09T03:27:06.738Z,102.32
2024-05-09T03:27:38.760Z,100.90
2024-05-09T03:28:11.642Z,104.13
2024-05-09T03:28:43.962Z,97.15
2024-05-09T03:29:18.849Z,97.60
2024-05-09T03:29:51.208Z,96.90
2024-05-09T03:30:31.249Z,98.75
2024-05-09T03:31:12.696Z,91.35
2024-05-09T03:31:44.855Z,93.57
2024-05-09T03:32:17.274Z,92.03
2024-05-09T03:32:51.995Z,90.95
2024-05-09T03:33:24.476Z,89.35
2024-05-09T03:33:56.841Z,92.13
2024-05-09T03:34:29.039Z,91.55
2024-05-09T03:35:01.111Z,99.13
2024-05-09T03:35:33.262Z,93.88
2024-05-09T03:36:09.782Z,97.88
2024-05-09T03:36:45.713Z,98.60
2024-05-09T03:37:20.349Z,95.18
2024-05-09T03:37:52.526Z,97.03
2024-05-09T03:38:24.750Z,95.85
2024-05-09T03:38:56.786Z,93.80
2024-05-09T03:39:31.380Z,94.03
2024-05-09T03:40:05.551Z,92.80
2024-05-09T03:40:49.577Z,92.03
2024-05-09T03:41:22.359Z,88.70
2024-05-09T03:41:57.317Z,95.00
2024-05-09T03:42:29.363Z,91.25
2024-05-09T03:43:01.407Z,90.57
2024-05-09T03:43:33.427Z,94.93
2024-05-09T03:44:08.157Z,87.68
2024-05-09T03:44:40.448Z,89.00
2024-05-09T03:45:12.572Z,93.38
2024-05-09T03:45:45.506Z,91.45
2024-05-09T03:46:17.648Z,91.40
2024-05-09T03:46:52.294Z,88.03
2024-05-09T03:47:24.445Z,89.57
2024-05-09T03:47:56.880Z,89.70
2024-05-09T03:48:30.169Z,89.20
2024-05-09T03:49:02.397Z,91.65
2024-05-09T03:49:34.671Z,96.75
2024-05-09T03:50:12.128Z,91.63
2024-05-09T03:50:47.795Z,95.60
2024-05-09T03:51:22.468Z,95.53
2024-05-09T03:51:54.465Z,99.22
2024-05-09T03:52:26.532Z,102.60
2024-05-09T03:52:58.605Z,100.88
2024-05-09T03:53:30.825Z,101.85
2024-05-09T03:54:02.919Z,106.53
2024-05-09T03:54:35.503Z,104.22
2024-05-09T03:55:10.287Z,108.68
2024-05-09T03:55:42.634Z,100.85
2024-05-09T03:56:14.723Z,101.47
2024-05-09T03:56:47.009Z,102.32
2024-05-09T03:57:19.072Z,99.80
2024-05-09T03:57:51.697Z,98.78
2024-05-09T03:58:23.751Z,97.70
2024-05-09T03:58:59.012Z,96.18
2024-05-09T03:59:31.225Z,91.85
2024-05-09T04:00:05.544Z,93.07
2024-05-09T04:00:47.100Z,91.00
2024-05-09T04:01:19.186Z,90.28
2024-05-09T04:01:51.272Z,96.45
2024-05-09T04:02:25.969Z,94.40
2024-05-09T04:02:59.885Z,93.35
2024-05-09T04:03:32.223Z,99.85
2024-05-09T04:04:04.528Z,102.22
2024-05-09T04:04:36.735Z,101.57
2024-05-09T04:05:09.769Z,104.38
2024-05-09T04:05:45.968Z,104.25
2024-05-09T04:06:25.568Z,109.57
2024-05-09T04:06:57.621Z,108.60
2024-05-09T04:07:29.697Z,106.20
2024-05-09T04:08:01.909Z,108.07
2024-05-09T04:08:34.247Z,104.85
2024-05-09T04:09:06.417Z,104.05
2024-05-09T04:09:41.193Z,104.10
2024-05-09T04:10:21.160Z,101.00
2024-05-09T04:10:59.919Z,101.68
2024-05-09T04:11:32.867Z,95.50
2024-05-09T04:12:07.666Z,93.07
2024-05-09T04:12:41.308Z,91.30
2024-05-09T04:13:15.946Z,93.80
2024-05-09T04:13:48.629Z,93.78
2024-05-09T04:14:20.764Z,89.78
2024-05-09T04:14:52.863Z,84.18
2024-05-09T04:15:24.884Z,87.22
2024-05-09T04:15:56.885Z,89.03
2024-05-09T04:16:31.593Z,92.78
2024-05-09T04:17:03.674Z,94.97
2024-05-09T04:17:35.960Z,93.93
2024-05-09T04:18:08.416Z,93.00
2024-05-09T04:18:40.856Z,92.10
2024-05-09T04:19:13.159Z,89.82
2024-05-09T04:19:45.236Z,90.93
2024-05-09T04:20:24.802Z,96.50
2024-05-09T04:21:09.469Z,93.68
2024-05-09T04:21:41.606Z,95.18
2024-05-09T04:22:13.628Z,94.55
2024-05-09T04:22:45.673Z,94.47
2024-05-09T04:23:17.845Z,89.03
2024-05-09T04:23:49.924Z,90.90
2024-05-09T04:24:22.000Z,87.43
2024-05-09T04:24:54.085Z,86.57
2024-05-09T04:25:28.669Z,91.50
2024-05-09T04:26:04.299Z,89.13
2024-05-09T04:26:36.394Z,92.88
2024-05-09T04:27:09.386Z,91.40
2024-05-09T04:27:41.470Z,90.03
2024-05-09T04:28:13.982Z,88.43
2024-05-09T04:28:46.189Z,90.32
2024-05-09T04:29:20.931Z,86.03
2024-05-09T04:29:52.983Z,85.57
2024-05-09T04:30:35.960Z,84.53
2024-05-09T04:31:11.145Z,89.00
2024-05-09T04:31:43.277Z,86.22
2024-05-09T04:32:17.952Z,89.15
2024-05-09T04:32:50.858Z,86.05
2024-05-09T04:33:23.134Z,91.35
2024-05-09T04:33:55.666Z,88.15
2024-05-09T04:34:27.886Z,84.97
2024-05-09T04:34:59.994Z,90.10
2024-05-09T04:35:32.392Z,88.03
2024-05-09T04:36:07.564Z,86.05
2024-05-09T04:36:42.472Z,86.43
2024-05-09T04:37:16.050Z,84.68
2024-05-09T04:37:49.096Z,84.63
2024-05-09T04:38:21.555Z,82.90
2024-05-09T04:38:53.609Z,84.93
2024-05-09T04:39:28.193Z,84.75
2024-05-09T04:40:00.360Z,81.43
2024-05-09T04:40:35.556Z,84.60
2024-05-09T04:41:09.193Z,82.60
2024-05-09T04:41:41.301Z,82.18
2024-05-09T04:42:15.982Z,82.18
2024-05-09T04:42:48.004Z,85.10
2024-05-09T04:43:21.204Z,84.47
2024-05-09T04:43:53.244Z,84.75
2024-05-09T04:44:25.378Z,84.80
2024-05-09T04:44:58.791Z,81.10
2024-05-09T04:45:31.085Z,80.13
2024-05-09T04:46:03.221Z,86.05
2024-05-09T04:46:39.665Z,85.47
2024-05-09T04:47:11.863Z,81.83
2024-05-09T04:47:44.181Z,80.55
2024-05-09T04:48:16.784Z,85.72
2024-05-09T04:48:49.240Z,83.55
2024-05-09T04:49:21.593Z,81.53
2024-05-09T04:49:53.807Z,84.57
2024-05-09T04:50:36.277Z,84.03
2024-05-09T04:51:10.890Z,83.85
2024-05-09T04:51:42.949Z,84.30
2024-05-09T04:52:15.326Z,86.28
2024-05-09T04:52:47.424Z,83.30
2024-05-09T04:53:19.738Z,85.55
2024-05-09T04:53:51.800Z,80.75
2024-05-09T04:54:33.662Z,86.07
2024-05-09T04:55:10.910Z,83.88
2024-05-09T04:55:43.351Z,86.57
2024-05-09T04:56:15.456Z,83.60
2024-05-09T04:56:47.656Z,84.63
2024-05-09T04:57:19.777Z,83.97
2024-05-09T04:57:54.970Z,81.95
2024-05-09T04:58:27.104Z,79.50
2024-05-09T04:58:59.153Z,77.03
2024-05-09T04:59:31.467Z,78.60
2024-05-09T05:00:09.346Z,77.80
2024-05-09T05:00:46.263Z,78.88
2024-05-09T05:01:20.969Z,76.75
2024-05-09T05:01:53.122Z,77.68
2024-05-09T05:02:25.304Z,79.50
2024-05-09T05:02:57.551Z,75.40
2024-05-09T05:03:30.171Z,78.10
2024-05-09T05:04:02.521Z,80.93
2024-05-09T05:04:34.691Z,79.25
2024-05-09T05:05:10.319Z,77.07
2024-05-09T05:05:45.178Z,76.80
2024-05-09T05:06:17.991Z,75.07
2024-05-09T05:06:50.002Z,74.18
2024-05-09T05:07:22.305Z,73.68
2024-05-09T05:07:54.470Z,72.32
2024-05-09T05:08:29.651Z,74.53
2024-05-09T05:09:01.725Z,70.35
2024-05-09T05:09:33.729Z,69.82
2024-05-09T05:10:09.436Z,70.28
2024-05-09T05:10:44.577Z,73.32
2024-05-09T05:11:16.803Z,70.53
2024-05-09T05:11:49.026Z,69.95
2024-05-09T05:12:39.712Z,69.80
2024-05-09T05:13:24.804Z,72.40
2024-05-09T05:13:57.264Z,73.03
2024-05-09T05:14:29.491Z,72.95
2024-05-09T05:15:01.537Z,73.07
2024-05-09T05:15:33.737Z,73.00
2024-05-09T05:16:08.555Z,73.95
2024-05-09T05:16:40.579Z,73.95
2024-05-09T05:17:12.872Z,72.88
2024-05-09T05:17:45.134Z,72.10
2024-05-09T05:18:18.782Z,70.78
2024-05-09T05:18:51.191Z,72.07
2024-05-09T05:19:23.335Z,69.95
2024-05-09T05:19:56.714Z,68.65
2024-05-09T05:20:33.761Z,68.35
2024-05-09T05:21:06.502Z,68.45
2024-05-09T05:21:38.663Z,65.97
2024-05-09T05:22:10.671Z,67.10
2024-05-09T05:22:43.568Z,66.45
2024-05-09T05:23:21.761Z,64.40
2024-05-09T05:23:53.898Z,65.05
2024-05-09T05:24:26.006Z,62.70
2024-05-09T05:24:58.032Z,63.08
2024-05-09T05:25:30.104Z,61.55
2024-05-09T05:26:02.224Z,61.58
2024-05-09T05:26:37.061Z,60.78
2024-05-09T05:27:09.206Z,62.53
2024-05-09T05:27:41.254Z,63.35
2024-05-09T05:28:13.622Z,63.42
2024-05-09T05:28:46.557Z,63.90
2024-05-09T05:29:20.956Z,64.63
2024-05-09T05:29:53.077Z,66.13
2024-05-09T05:30:32.794Z,65.50
2024-05-09T05:31:06.681Z,65.73
2024-05-09T05:31:38.807Z,66.88
2024-05-09T05:32:10.965Z,67.35
2024-05-09T05:32:43.600Z,66.43
2024-05-09T05:33:18.792Z,65.45
2024-05-09T05:33:51.441Z,66.60
2024-05-09T05:34:26.106Z,65.50
2024-05-09T05:34:58.156Z,65.43
2024-05-09T05:35:30.473Z,64.60
2024-05-09T05:36:02.735Z,63.30
2024-05-09T05:36:34.819Z,63.65
2024-05-09T05:37:06.828Z,61.85
2024-05-09T05:37:41.889Z,62.50
2024-05-09T05:38:14.504Z,62.78
2024-05-09T05:38:46.655Z,60.47
2024-05-09T05:39:18.724Z,62.65
2024-05-09T05:39:50.768Z,63.42
2024-05-09T05:40:32.060Z,64.60
2024-05-09T05:41:08.065Z,66.90
2024-05-09T05:41:42.705Z,66.78
2024-05-09T05:42:14.887Z,71.60
2024-05-09T05:42:46.939Z,69.55
2024-05-09T05:43:19.328Z,70.18
2024-05-09T05:43:51.378Z,73.10
2024-05-09T05:44:23.618Z,74.47
2024-05-09T05:44:55.634Z,73.13
2024-05-09T05:45:30.273Z,73.10
2024-05-09T05:46:02.330Z,72.55
2024-05-09T05:46:34.341Z,71.22
2024-05-09T05:47:06.529Z,73.05
2024-05-09T05:47:38.856Z,73.63
2024-05-09T05:48:11.234Z,73.93
2024-05-09T05:48:43.454Z,69.80
2024-05-09T05:49:16.767Z,69.47
2024-05-09T05:49:51.539Z,72.60
2024-05-09T05:50:32.837Z,70.97
2024-05-09T05:51:08.318Z,72.90
2024-05-09T05:51:40.373Z,76.68
2024-05-09T05:52:12.413Z,73.75
2024-05-09T05:52:44.568Z,73.22
2024-05-09T05:53:19.271Z,72.55
2024-05-09T05:53:51.465Z,73.53
2024-05-09T05:54:23.764Z,78.65
2024-05-09T05:54:55.880Z,77.32
2024-05-09T05:55:27.903Z,80.97
2024-05-09T05:56:00.010Z,82.35
2024-05-09T05:56:32.226Z,78.70
2024-05-09T05:57:07.206Z,76.63
2024-05-09T05:57:39.329Z,79.15
2024-05-09T05:58:12.456Z,78.68
2024-05-09T05:58:44.774Z,79.22
2024-05-09T05:59:16.920Z,80.10
2024-05-09T05:59:48.988Z,78.25
2024-05-09T06:00:29.955Z,78.93
2024-05-09T06:01:09.405Z,75.88
2024-05-09T06:01:41.424Z,77.15
2024-05-09T06:02:13.872Z,76.18
2024-05-09T06:02:46.047Z,79.30
2024-05-09T06:03:20.720Z,77.55
2024-05-09T06:03:52.969Z,78.93
2024-05-09T06:04:25.094Z,78.63
2024-05-09T06:04:57.307Z,78.50
2024-05-09T06:05:29.454Z,79.72
2024-05-09T06:06:03.271Z,77.57
2024-05-09T06:06:35.355Z,79.30
2024-05-09T06:07:10.021Z,76.30
2024-05-09T06:07:42.032Z,76.53
2024-05-09T06:08:14.339Z,74.72
2024-05-09T06:08:46.654Z,73.40
2024-05-09T06:09:18.735Z,74.82
2024-05-09T06:09:50.949Z,77.22
2024-05-09T06:10:29.619Z,78.57
2024-05-09T06:11:09.638Z,76.88
2024-05-09T06:11:42.797Z,76.00
2024-05-09T06:12:15.148Z,75.00
2024-05-09T06:12:47.358Z,76.55
2024-05-09T06:13:20.479Z,76.60
2024-05-09T06:13:52.512Z,77.07
2024-05-09T06:14:27.830Z,75.45
2024-05-09T06:15:00.636Z,75.88
2024-05-09T06:15:32.685Z,76.20
2024-05-09T06:16:05.192Z,75.07
2024-05-09T06:16:37.305Z,73.63
2024-05-09T06:17:09.387Z,77.15
2024-05-09T06:17:44.323Z,78.63
2024-05-09T06:18:16.663Z,77.18
2024-05-09T06:18:48.915Z,76.45
2024-05-09T06:19:21.192Z,74.55
2024-05-09T06:19:53.733Z,75.15
2024-05-09T06:20:34.706Z,76.25
2024-05-09T06:21:12.006Z,78.15
2024-05-09T06:21:44.254Z,78.85
2024-05-09T06:22:16.390Z,75.35
2024-05-09T06:22:48.424Z,76.80
2024-05-09T06:23:20.608Z,77.97
2024-05-09T06:23:53.397Z,79.28
2024-05-09T06:24:25.467Z,80.07
2024-05-09T06:25:00.119Z,79.78
2024-05-09T06:25:32.595Z,78.03
2024-05-09T06:26:05.087Z,78.22
2024-05-09T06:26:37.220Z,80.00
2024-05-09T06:27:09.503Z,79.88
2024-05-09T06:27:41.489Z,78.97
2024-05-09T06:28:16.084Z,77.30
2024-05-09T06:28:48.258Z,79.63
2024-05-09T06:29:20.469Z,75.38
2024-05-09T06:29:52.610Z,74.32
2024-05-09T06:30:34.457Z,73.82
2024-05-09T06:31:10.541Z,71.97
2024-05-09T06:31:43.461Z,73.05
2024-05-09T06:32:18.916Z,74.80
2024-05-09T06:32:51.094Z,78.05
2024-05-09T06:33:23.248Z,78.13
2024-05-09T06:33:55.433Z,79.05
2024-05-09T06:34:27.797Z,78.53
2024-05-09T06:35:00.105Z,79.32
2024-05-09T06:35:32.770Z,80.35
2024-05-09T06:36:08.254Z,81.70
2024-05-09T06:36:40.269Z,83.25
2024-05-09T06:37:12.265Z,80.95
2024-05-09T06:37:44.475Z,81.07
2024-05-09T06:38:16.574Z,80.47
2024-05-09T06:38:48.740Z,81.65
2024-05-09T06:39:23.320Z,77.35
2024-05-09T06:39:55.356Z,77.47
2024-05-09T06:40:36.176Z,80.57
2024-05-09T06:41:11.119Z,80.78
2024-05-09T06:41:43.250Z,82.90
2024-05-09T06:42:17.865Z,83.68
2024-05-09T06:42:50.005Z,86.05
2024-05-09T06:43:22.148Z,85.97
2024-05-09T06:43:54.205Z,85.18
2024-05-09T06:44:26.316Z,83.43
2024-05-09T06:44:58.310Z,80.45
2024-05-09T06:45:30.308Z,83.47
2024-05-09T06:46:04.881Z,86.70
2024-05-09T06:46:40.004Z,83.25
2024-05-09T06:47:12.103Z,84.65
2024-05-09T06:47:44.426Z,86.03
2024-05-09T06:48:19.596Z,83.93
2024-05-09T06:48:52.851Z,85.50
2024-05-09T06:49:29.132Z,81.53
2024-05-09T06:50:01.423Z,81.53
2024-05-09T06:50:37.580Z,78.93
2024-05-09T06:51:11.320Z,80.05
2024-05-09T06:51:43.382Z,77.75
2024-05-09T06:52:15.388Z,77.53
2024-05-09T06:52:47.720Z,78.80
2024-05-09T06:53:25.998Z,78.50
2024-05-09T06:53:58.229Z,75.90
2024-05-09T06:54:31.081Z,77.13
2024-05-09T06:55:03.095Z,78.90
2024-05-09T06:55:36.310Z,77.57
2024-05-09T06:56:08.411Z,80.18
2024-05-09T06:56:40.485Z,81.22
2024-05-09T06:57:15.107Z,79.05
2024-05-09T06:57:47.099Z,80.05
2024-05-09T06:58:19.134Z,83.00
2024-05-09T06:58:51.148Z,83.57
2024-05-09T06:59:23.333Z,84.00
2024-05-09T06:59:59.629Z,82.00
2024-05-09T07:00:38.563Z,82.65
2024-05-09T07:01:15.487Z,82.40
2024-05-09T07:01:47.626Z,83.50
2024-05-09T07:02:19.733Z,79.47
2024-05-09T07:02:52.851Z,81.22
2024-05-09T07:03:25.192Z,79.32
2024-05-09T07:03:57.378Z,83.35
2024-05-09T07:04:32.422Z,82.20
2024-05-09T07:05:05.003Z,79.23
2024-05-09T07:05:37.617Z,80.68
2024-05-09T07:06:09.964Z,82.22
2024-05-09T07:06:42.160Z,81.63
2024-05-09T07:07:14.289Z,82.93
2024-05-09T07:07:46.332Z,79.38
2024-05-09T07:08:21.306Z,78.63
2024-05-09T07:08:53.415Z,72.20
2024-05-09T07:09:25.492Z,73.85
2024-05-09T07:09:57.628Z,73.53
2024-05-09T07:10:34.789Z,72.15
2024-05-09T07:11:08.062Z,72.75
2024-05-09T07:11:42.942Z,70.13
2024-05-09T07:12:15.295Z,70.13
2024-05-09T07:12:47.447Z,71.90